sensor_id;sensor_type;location;lat;lon;timestamp;temperature;humidity
75799;DHT22;65035;44.726;37.764;2022-12-31T00:00:11;18.41;118.99
75799;DHT22;65035;44.726;37.764;2022-12-31T00:01:15;18.42;118.99
75799;DHT22;65035;44.726;37.764;2022-12-31T00:02:19;18.38;118.99
75799;DHT22;65035;44.726;37.764;2022-12-31T00:03:22;18.37;118.99
75799;DHT22;65035;44.726;37.764;2022-12-31T00:04:28;18.41;118.99
75799;DHT22;65035;44.726;37.764;2022-12-31T00:05:31;18.43;118.99
75799;DHT22;65035;44.726;37.764;2022-12-31T00:06:34;18.43;118.99
75799;DHT22;65035;44.726;37.764;2022-12-31T00:07:48;18.39;118.99
75799;DHT22;65035;44.726;37.764;2022-12-31T00:08:52;18.37;118.99
75799;DHT22;65035;44.726;37.764;2022-12-31T00:09:55;18.42;118.99
75799;DHT22;65035;44.726;37.764;2022-12-31T00:10:57;18.38;118.99
75799;DHT22;65035;44.726;37.764;2022-12-31T00:12:00;18.46;118.99
75799;DHT22;65035;44.726;37.764;2022-12-31T00:13:03;18.41;118.99
75799;DHT22;65035;44.726;37.764;2022-12-31T00:14:06;18.44;118.99
75799;DHT22;65035;44.726;37.764;2022-12-31T00:15:09;18.42;118.99
75799;DHT22;65035;44.726;37.764;2022-12-31T00:16:19;18.44;118.99
75799;DHT22;65035;44.726;37.764;2022-12-31T00:17:22;18.42;118.99
75799;DHT22;65035;44.726;37.764;2022-12-31T00:18:28;18.46;118.99
75799;DHT22;65035;44.726;37.764;2022-12-31T00:19:31;18.47;118.99
75799;DHT22;65035;44.726;37.764;2022-12-31T00:20:37;18.46;118.99
75799;DHT22;65035;44.726;37.764;2022-12-31T00:21:43;18.46;118.99
75799;DHT22;65035;44.726;37.764;2022-12-31T00:22:46;18.44;118.99
75799;DHT22;65035;44.726;37.764;2022-12-31T00:23:49;18.43;118.99
75799;DHT22;65035;44.726;37.764;2022-12-31T00:24:52;18.49;118.99
75799;DHT22;65035;44.726;37.764;2022-12-31T00:25:54;18.43;118.99
75799;DHT22;65035;44.726;37.764;2022-12-31T00:26:57;18.43;118.99
75799;DHT22;65035;44.726;37.764;2022-12-31T00:28:01;18.42;118.99
75799;DHT22;65035;44.726;37.764;2022-12-31T00:29:05;18.43;118.99
75799;DHT22;65035;44.726;37.764;2022-12-31T00:30:08;18.41;118.99
75799;DHT22;65035;44.726;37.764;2022-12-31T00:31:17;18.46;118.99
75799;DHT22;65035;44.726;37.764;2022-12-31T00:32:21;18.42;118.99
75799;DHT22;65035;44.726;37.764;2022-12-31T00:33:23;18.40;118.99
75799;DHT22;65035;44.726;37.764;2022-12-31T00:34:30;18.43;118.99
75799;DHT22;65035;44.726;37.764;2022-12-31T00:35:32;18.44;118.99
75799;DHT22;65035;44.726;37.764;2022-12-31T00:36:42;18.44;118.99
75799;DHT22;65035;44.726;37.764;2022-12-31T00:37:52;18.40;118.99
75799;DHT22;65035;44.726;37.764;2022-12-31T00:38:56;18.43;118.99
75799;DHT22;65035;44.726;37.764;2022-12-31T00:39:59;18.47;118.99
75799;DHT22;65035;44.726;37.764;2022-12-31T00:41:03;18.44;118.99
75799;DHT22;65035;44.726;37.764;2022-12-31T00:42:06;18.46;118.99
75799;DHT22;65035;44.726;37.764;2022-12-31T00:43:08;18.43;118.99
75799;DHT22;65035;44.726;37.764;2022-12-31T00:44:11;18.42;118.99
75799;DHT22;65035;44.726;37.764;2022-12-31T00:45:14;18.43;118.99
75799;DHT22;65035;44.726;37.764;2022-12-31T00:46:27;18.42;118.99
75799;DHT22;65035;44.726;37.764;2022-12-31T00:47:30;18.43;118.99
75799;DHT22;65035;44.726;37.764;2022-12-31T00:48:33;18.44;118.99
75799;DHT22;65035;44.726;37.764;2022-12-31T00:49:41;18.43;118.99
75799;DHT22;65035;44.726;37.764;2022-12-31T00:50:44;18.46;118.99
75799;DHT22;65035;44.726;37.764;2022-12-31T00:51:47;18.44;118.99
75799;DHT22;65035;44.726;37.764;2022-12-31T00:52:51;18.49;118.99
75799;DHT22;65035;44.726;37.764;2022-12-31T00:53:57;18.43;118.99
75799;DHT22;65035;44.726;37.764;2022-12-31T00:55:00;18.48;118.99
75799;DHT22;65035;44.726;37.764;2022-12-31T00:56:09;18.43;118.99
75799;DHT22;65035;44.726;37.764;2022-12-31T00:57:14;18.43;118.99
75799;DHT22;65035;44.726;37.764;2022-12-31T00:58:27;18.44;118.99
75799;DHT22;65035;44.726;37.764;2022-12-31T00:59:34;18.41;118.99
75799;DHT22;65035;44.726;37.764;2022-12-31T01:00:47;18.42;118.99
75799;DHT22;65035;44.726;37.764;2022-12-31T01:01:50;18.42;118.99
75799;DHT22;65035;44.726;37.764;2022-12-31T01:02:54;18.41;118.99
75799;DHT22;65035;44.726;37.764;2022-12-31T01:04:00;18.46;118.99
75799;DHT22;65035;44.726;37.764;2022-12-31T01:05:03;18.41;118.99
75799;DHT22;65035;44.726;37.764;2022-12-31T01:06:07;18.40;118.99
75799;DHT22;65035;44.726;37.764;2022-12-31T01:07:10;18.42;118.99
75799;DHT22;65035;44.726;37.764;2022-12-31T01:08:12;18.43;118.99
75799;DHT22;65035;44.726;37.764;2022-12-31T01:09:16;18.44;118.99
75799;DHT22;65035;44.726;37.764;2022-12-31T01:10:19;18.40;118.99
75799;DHT22;65035;44.726;37.764;2022-12-31T01:11:42;18.39;118.99
75799;DHT22;65035;44.726;37.764;2022-12-31T01:12:45;18.43;118.99
75799;DHT22;65035;44.726;37.764;2022-12-31T01:14:58;18.42;118.99
75799;DHT22;65035;44.726;37.764;2022-12-31T01:16:11;18.40;118.99
75799;DHT22;65035;44.726;37.764;2022-12-31T01:18:04;18.40;118.99
75799;DHT22;65035;44.726;37.764;2022-12-31T01:19:13;18.40;118.99
75799;DHT22;65035;44.726;37.764;2022-12-31T01:20:18;18.41;118.99
75799;DHT22;65035;44.726;37.764;2022-12-31T01:21:21;18.41;118.99
75799;DHT22;65035;44.726;37.764;2022-12-31T01:22:24;18.41;118.99
75799;DHT22;65035;44.726;37.764;2022-12-31T01:23:27;18.40;118.99
75799;DHT22;65035;44.726;37.764;2022-12-31T01:24:30;18.49;118.99
75799;DHT22;65035;44.726;37.764;2022-12-31T01:25:39;18.40;118.99
75799;DHT22;65035;44.726;37.764;2022-12-31T01:26:46;18.42;118.99
75799;DHT22;65035;44.726;37.764;2022-12-31T01:27:49;18.42;118.99
75799;DHT22;65035;44.726;37.764;2022-12-31T01:28:52;18.41;118.99
75799;DHT22;65035;44.726;37.764;2022-12-31T01:29:55;18.43;118.99
75799;DHT22;65035;44.726;37.764;2022-12-31T01:31:01;18.41;118.99
75799;DHT22;65035;44.726;37.764;2022-12-31T01:32:04;18.38;118.99
75799;DHT22;65035;44.726;37.764;2022-12-31T01:33:07;18.42;118.99
75799;DHT22;65035;44.726;37.764;2022-12-31T01:35:05;18.49;118.99
75799;DHT22;65035;44.726;37.764;2022-12-31T01:36:16;18.49;118.99
75799;DHT22;65035;44.726;37.764;2022-12-31T01:37:30;18.40;118.99
75799;DHT22;65035;44.726;37.764;2022-12-31T01:38:33;18.48;118.99
75799;DHT22;65035;44.726;37.764;2022-12-31T01:39:36;18.43;118.99
75799;DHT22;65035;44.726;37.764;2022-12-31T01:40:40;18.42;118.99
75799;DHT22;65035;44.726;37.764;2022-12-31T01:41:45;18.42;118.99
75799;DHT22;65035;44.726;37.764;2022-12-31T01:42:56;18.42;118.99
75799;DHT22;65035;44.726;37.764;2022-12-31T01:45:14;18.44;118.99
75799;DHT22;65035;44.726;37.764;2022-12-31T01:46:28;18.41;118.99
75799;DHT22;65035;44.726;37.764;2022-12-31T01:47:46;18.44;118.99
75799;DHT22;65035;44.726;37.764;2022-12-31T01:48:55;18.48;118.99
75799;DHT22;65035;44.726;37.764;2022-12-31T01:50:05;18.42;118.99
75799;DHT22;65035;44.726;37.764;2022-12-31T01:51:09;18.42;118.99
75799;DHT22;65035;44.726;37.764;2022-12-31T01:52:30;18.44;118.99
75799;DHT22;65035;44.726;37.764;2022-12-31T01:53:34;18.40;118.99
75799;DHT22;65035;44.726;37.764;2022-12-31T01:54:50;18.44;118.99
75799;DHT22;65035;44.726;37.764;2022-12-31T01:55:56;18.42;118.99
75799;DHT22;65035;44.726;37.764;2022-12-31T01:57:01;18.41;118.99
75799;DHT22;65035;44.726;37.764;2022-12-31T01:58:08;18.42;118.99
75799;DHT22;65035;44.726;37.764;2022-12-31T01:59:13;18.41;118.99
75799;DHT22;65035;44.726;37.764;2022-12-31T02:00:18;18.40;118.99
75799;DHT22;65035;44.726;37.764;2022-12-31T02:01:27;18.43;118.99
75799;DHT22;65035;44.726;37.764;2022-12-31T02:03:21;18.48;118.99
75799;DHT22;65035;44.726;37.764;2022-12-31T02:04:25;18.40;118.99
75799;DHT22;65035;44.726;37.764;2022-12-31T02:05:45;18.39;118.99
75799;DHT22;65035;44.726;37.764;2022-12-31T02:07:01;18.43;118.99
75799;DHT22;65035;44.726;37.764;2022-12-31T02:08:05;18.43;118.99
75799;DHT22;65035;44.726;37.764;2022-12-31T02:09:56;18.44;118.99
75799;DHT22;65035;44.726;37.764;2022-12-31T02:12:26;18.41;118.99
75799;DHT22;65035;44.726;37.764;2022-12-31T02:13:29;18.39;118.99
75799;DHT22;65035;44.726;37.764;2022-12-31T02:14:39;18.43;118.99
75799;DHT22;65035;44.726;37.764;2022-12-31T02:16:04;18.43;118.99
75799;DHT22;65035;44.726;37.764;2022-12-31T02:22:48;18.41;118.99
75799;DHT22;65035;44.726;37.764;2022-12-31T02:24:09;18.39;118.99
75799;DHT22;65035;44.726;37.764;2022-12-31T02:26:52;18.46;118.99
75799;DHT22;65035;44.726;37.764;2022-12-31T02:33:42;18.37;118.99
75799;DHT22;65035;44.726;37.764;2022-12-31T02:34:52;18.42;118.99
75799;DHT22;65035;44.726;37.764;2022-12-31T02:36:03;18.43;118.99
75799;DHT22;65035;44.726;37.764;2022-12-31T02:37:10;18.47;118.99
75799;DHT22;65035;44.726;37.764;2022-12-31T02:38:23;18.42;118.99
75799;DHT22;65035;44.726;37.764;2022-12-31T02:39:31;18.44;118.99
75799;DHT22;65035;44.726;37.764;2022-12-31T02:40:37;18.41;118.99
75799;DHT22;65035;44.726;37.764;2022-12-31T02:41:40;18.41;118.99
75799;DHT22;65035;44.726;37.764;2022-12-31T02:43:02;18.39;118.99
75799;DHT22;65035;44.726;37.764;2022-12-31T02:44:24;18.41;118.99
75799;DHT22;65035;44.726;37.764;2022-12-31T02:45:37;18.43;118.99
75799;DHT22;65035;44.726;37.764;2022-12-31T02:46:48;18.41;118.99
75799;DHT22;65035;44.726;37.764;2022-12-31T02:49:32;18.40;118.99
75799;DHT22;65035;44.726;37.764;2022-12-31T02:51:17;18.39;118.99
75799;DHT22;65035;44.726;37.764;2022-12-31T02:52:20;18.44;118.99
75799;DHT22;65035;44.726;37.764;2022-12-31T02:55:10;18.41;118.99
75799;DHT22;65035;44.726;37.764;2022-12-31T02:59:05;18.40;118.99
75799;DHT22;65035;44.726;37.764;2022-12-31T03:00:32;18.40;118.99
75799;DHT22;65035;44.726;37.764;2022-12-31T03:02:00;18.41;118.99
75799;DHT22;65035;44.726;37.764;2022-12-31T03:03:19;18.43;118.99
75799;DHT22;65035;44.726;37.764;2022-12-31T03:04:23;18.42;118.99
75799;DHT22;65035;44.726;37.764;2022-12-31T03:05:39;18.39;118.99
75799;DHT22;65035;44.726;37.764;2022-12-31T03:07:33;18.43;118.99
75799;DHT22;65035;44.726;37.764;2022-12-31T03:08:41;18.40;118.99
75799;DHT22;65035;44.726;37.764;2022-12-31T03:10:05;18.41;118.99
75799;DHT22;65035;44.726;37.764;2022-12-31T03:11:08;18.41;118.99
75799;DHT22;65035;44.726;37.764;2022-12-31T03:12:32;18.37;118.99
75799;DHT22;65035;44.726;37.764;2022-12-31T03:13:48;18.39;118.99
75799;DHT22;65035;44.726;37.764;2022-12-31T03:14:51;18.41;118.99
75799;DHT22;65035;44.726;37.764;2022-12-31T03:15:54;18.42;118.99
75799;DHT22;65035;44.726;37.764;2022-12-31T03:17:00;18.41;118.99
75799;DHT22;65035;44.726;37.764;2022-12-31T03:19:16;18.42;118.99
75799;DHT22;65035;44.726;37.764;2022-12-31T03:20:49;18.46;118.99
75799;DHT22;65035;44.726;37.764;2022-12-31T03:22:14;18.46;118.99
75799;DHT22;65035;44.726;37.764;2022-12-31T03:23:42;18.41;118.99
75799;DHT22;65035;44.726;37.764;2022-12-31T03:26:31;18.44;118.99
75799;DHT22;65035;44.726;37.764;2022-12-31T03:27:34;18.44;118.99
75799;DHT22;65035;44.726;37.764;2022-12-31T03:28:42;18.41;118.99
75799;DHT22;65035;44.726;37.764;2022-12-31T03:29:49;18.46;118.99
75799;DHT22;65035;44.726;37.764;2022-12-31T03:30:58;18.41;118.99
75799;DHT22;65035;44.726;37.764;2022-12-31T03:32:01;18.42;118.99
75799;DHT22;65035;44.726;37.764;2022-12-31T03:33:04;18.41;118.99
75799;DHT22;65035;44.726;37.764;2022-12-31T03:34:56;18.44;118.99
75799;DHT22;65035;44.726;37.764;2022-12-31T03:36:12;18.46;118.99
75799;DHT22;65035;44.726;37.764;2022-12-31T03:37:15;18.47;118.99
75799;DHT22;65035;44.726;37.764;2022-12-31T03:38:28;18.44;118.99
75799;DHT22;65035;44.726;37.764;2022-12-31T03:39:36;18.47;118.99
75799;DHT22;65035;44.726;37.764;2022-12-31T03:40:45;18.46;118.99
75799;DHT22;65035;44.726;37.764;2022-12-31T03:41:48;18.48;118.99
75799;DHT22;65035;44.726;37.764;2022-12-31T03:42:51;18.53;118.99
75799;DHT22;65035;44.726;37.764;2022-12-31T03:43:54;18.51;118.99
75799;DHT22;65035;44.726;37.764;2022-12-31T03:44:57;18.44;118.99
75799;DHT22;65035;44.726;37.764;2022-12-31T03:46:00;18.53;118.99
75799;DHT22;65035;44.726;37.764;2022-12-31T03:47:03;18.50;118.99
75799;DHT22;65035;44.726;37.764;2022-12-31T03:48:09;18.53;118.99
75799;DHT22;65035;44.726;37.764;2022-12-31T03:49:12;18.53;118.99
75799;DHT22;65035;44.726;37.764;2022-12-31T03:50:16;18.53;118.99
75799;DHT22;65035;44.726;37.764;2022-12-31T03:51:19;18.52;118.99
75799;DHT22;65035;44.726;37.764;2022-12-31T03:52:22;18.52;118.99
75799;DHT22;65035;44.726;37.764;2022-12-31T03:53:25;18.51;118.99
75799;DHT22;65035;44.726;37.764;2022-12-31T03:54:28;18.54;118.99
75799;DHT22;65035;44.726;37.764;2022-12-31T03:55:31;18.57;118.99
75799;DHT22;65035;44.726;37.764;2022-12-31T03:57:22;18.55;118.99
75799;DHT22;65035;44.726;37.764;2022-12-31T03:58:25;18.53;118.99
75799;DHT22;65035;44.726;37.764;2022-12-31T03:59:38;18.56;118.99
75799;DHT22;65035;44.726;37.764;2022-12-31T04:00:41;18.53;118.99
75799;DHT22;65035;44.726;37.764;2022-12-31T04:01:45;18.52;118.99
75799;DHT22;65035;44.726;37.764;2022-12-31T04:02:48;18.56;118.99
75799;DHT22;65035;44.726;37.764;2022-12-31T04:03:54;18.56;118.99
75799;DHT22;65035;44.726;37.764;2022-12-31T04:04:57;18.54;118.99
75799;DHT22;65035;44.726;37.764;2022-12-31T04:06:07;18.61;118.99
75799;DHT22;65035;44.726;37.764;2022-12-31T04:07:12;18.59;118.99
75799;DHT22;65035;44.726;37.764;2022-12-31T04:08:15;18.58;118.99
75799;DHT22;65035;44.726;37.764;2022-12-31T04:09:28;18.50;118.99
75799;DHT22;65035;44.726;37.764;2022-12-31T04:10:30;18.52;118.99
75799;DHT22;65035;44.726;37.764;2022-12-31T04:11:35;18.59;118.99
75799;DHT22;65035;44.726;37.764;2022-12-31T04:12:38;18.58;118.99
75799;DHT22;65035;44.726;37.764;2022-12-31T04:13:41;18.59;118.99
75799;DHT22;65035;44.726;37.764;2022-12-31T04:14:44;18.57;118.99
75799;DHT22;65035;44.726;37.764;2022-12-31T04:15:49;18.58;118.99
75799;DHT22;65035;44.726;37.764;2022-12-31T04:16:52;18.56;118.99
75799;DHT22;65035;44.726;37.764;2022-12-31T04:17:55;18.54;118.99
75799;DHT22;65035;44.726;37.764;2022-12-31T04:18:58;18.57;118.99
75799;DHT22;65035;44.726;37.764;2022-12-31T04:20:02;18.58;118.99
75799;DHT22;65035;44.726;37.764;2022-12-31T04:21:06;18.54;118.99
75799;DHT22;65035;44.726;37.764;2022-12-31T04:22:19;18.63;118.99
75799;DHT22;65035;44.726;37.764;2022-12-31T04:23:21;18.61;118.99
75799;DHT22;65035;44.726;37.764;2022-12-31T04:24:24;18.59;118.99
75799;DHT22;65035;44.726;37.764;2022-12-31T04:25:27;18.59;118.99
75799;DHT22;65035;44.726;37.764;2022-12-31T04:26:30;18.58;118.99
75799;DHT22;65035;44.726;37.764;2022-12-31T04:27:32;18.58;118.99
75799;DHT22;65035;44.726;37.764;2022-12-31T04:28:35;18.58;118.99
75799;DHT22;65035;44.726;37.764;2022-12-31T04:29:39;18.58;118.99
75799;DHT22;65035;44.726;37.764;2022-12-31T04:30:43;18.59;118.99
75799;DHT22;65035;44.726;37.764;2022-12-31T04:31:46;18.62;118.99
75799;DHT22;65035;44.726;37.764;2022-12-31T04:32:49;18.61;118.99
75799;DHT22;65035;44.726;37.764;2022-12-31T04:33:52;18.59;118.99
75799;DHT22;65035;44.726;37.764;2022-12-31T04:34:55;18.64;118.99
75799;DHT22;65035;44.726;37.764;2022-12-31T04:36:06;18.62;118.99
75799;DHT22;65035;44.726;37.764;2022-12-31T04:37:09;18.64;118.99
75799;DHT22;65035;44.726;37.764;2022-12-31T04:38:12;18.66;118.99
75799;DHT22;65035;44.726;37.764;2022-12-31T04:39:15;18.63;118.99
75799;DHT22;65035;44.726;37.764;2022-12-31T04:40:18;18.64;118.99
75799;DHT22;65035;44.726;37.764;2022-12-31T04:41:21;18.64;118.99
75799;DHT22;65035;44.726;37.764;2022-12-31T04:42:25;18.63;118.99
75799;DHT22;65035;44.726;37.764;2022-12-31T04:43:28;18.65;118.99
75799;DHT22;65035;44.726;37.764;2022-12-31T04:44:35;18.64;118.99
75799;DHT22;65035;44.726;37.764;2022-12-31T04:45:37;18.62;118.99
75799;DHT22;65035;44.726;37.764;2022-12-31T04:46:44;18.63;118.99
75799;DHT22;65035;44.726;37.764;2022-12-31T04:47:57;18.57;118.99
75799;DHT22;65035;44.726;37.764;2022-12-31T04:49:01;18.58;118.99
75799;DHT22;65035;44.726;37.764;2022-12-31T04:50:03;18.58;118.99
75799;DHT22;65035;44.726;37.764;2022-12-31T04:51:06;18.58;118.99
75799;DHT22;65035;44.726;37.764;2022-12-31T04:52:09;18.62;118.99
75799;DHT22;65035;44.726;37.764;2022-12-31T04:53:12;18.58;118.99
75799;DHT22;65035;44.726;37.764;2022-12-31T04:54:16;18.61;118.99
75799;DHT22;65035;44.726;37.764;2022-12-31T04:55:19;18.66;118.99
75799;DHT22;65035;44.726;37.764;2022-12-31T04:56:32;18.59;118.99
75799;DHT22;65035;44.726;37.764;2022-12-31T04:57:38;18.62;118.99
75799;DHT22;65035;44.726;37.764;2022-12-31T04:58:42;18.69;118.99
75799;DHT22;65035;44.726;37.764;2022-12-31T04:59:45;18.69;118.99
75799;DHT22;65035;44.726;37.764;2022-12-31T05:00:50;18.64;118.99
75799;DHT22;65035;44.726;37.764;2022-12-31T05:01:53;18.61;118.99
75799;DHT22;65035;44.726;37.764;2022-12-31T05:02:56;18.57;118.99
75799;DHT22;65035;44.726;37.764;2022-12-31T05:03:59;18.58;118.99
75799;DHT22;65035;44.726;37.764;2022-12-31T05:05:02;18.64;118.99
75799;DHT22;65035;44.726;37.764;2022-12-31T05:06:12;18.65;118.99
75799;DHT22;65035;44.726;37.764;2022-12-31T05:07:18;18.66;118.99
75799;DHT22;65035;44.726;37.764;2022-12-31T05:08:21;18.63;118.99
75799;DHT22;65035;44.726;37.764;2022-12-31T05:09:24;18.64;118.99
75799;DHT22;65035;44.726;37.764;2022-12-31T05:10:28;18.64;118.99
75799;DHT22;65035;44.726;37.764;2022-12-31T05:11:32;18.63;118.99
75799;DHT22;65035;44.726;37.764;2022-12-31T05:12:37;18.65;118.99
75799;DHT22;65035;44.726;37.764;2022-12-31T05:13:40;18.59;118.99
75799;DHT22;65035;44.726;37.764;2022-12-31T05:14:43;18.65;118.99
75799;DHT22;65035;44.726;37.764;2022-12-31T05:15:46;18.61;118.99
75799;DHT22;65035;44.726;37.764;2022-12-31T05:16:59;18.69;118.99
75799;DHT22;65035;44.726;37.764;2022-12-31T05:18:03;18.68;118.99
75799;DHT22;65035;44.726;37.764;2022-12-31T05:19:05;18.64;118.99
75799;DHT22;65035;44.726;37.764;2022-12-31T05:20:10;18.68;118.99
75799;DHT22;65035;44.726;37.764;2022-12-31T05:21:17;18.62;118.99
75799;DHT22;65035;44.726;37.764;2022-12-31T05:22:21;18.65;118.99
75799;DHT22;65035;44.726;37.764;2022-12-31T05:23:39;18.67;118.99
75799;DHT22;65035;44.726;37.764;2022-12-31T05:24:46;18.65;118.99
75799;DHT22;65035;44.726;37.764;2022-12-31T05:25:49;18.73;118.99
75799;DHT22;65035;44.726;37.764;2022-12-31T05:27:00;18.76;118.99
75799;DHT22;65035;44.726;37.764;2022-12-31T05:28:04;18.76;118.99
75799;DHT22;65035;44.726;37.764;2022-12-31T05:29:06;18.69;118.99
75799;DHT22;65035;44.726;37.764;2022-12-31T05:30:10;18.73;118.99
75799;DHT22;65035;44.726;37.764;2022-12-31T05:31:14;18.73;118.99
75799;DHT22;65035;44.726;37.764;2022-12-31T05:32:17;18.77;118.99
75799;DHT22;65035;44.726;37.764;2022-12-31T05:33:21;18.72;118.99
75799;DHT22;65035;44.726;37.764;2022-12-31T05:34:27;18.70;118.99
75799;DHT22;65035;44.726;37.764;2022-12-31T05:35:34;18.71;118.99
75799;DHT22;65035;44.726;37.764;2022-12-31T05:36:36;18.72;118.99
75799;DHT22;65035;44.726;37.764;2022-12-31T05:37:39;18.73;118.99
75799;DHT22;65035;44.726;37.764;2022-12-31T05:38:42;18.73;118.99
75799;DHT22;65035;44.726;37.764;2022-12-31T05:39:52;18.74;118.99
75799;DHT22;65035;44.726;37.764;2022-12-31T05:41:01;18.72;118.99
75799;DHT22;65035;44.726;37.764;2022-12-31T05:42:05;18.68;118.99
75799;DHT22;65035;44.726;37.764;2022-12-31T05:43:08;18.71;118.99
75799;DHT22;65035;44.726;37.764;2022-12-31T05:44:11;18.68;118.99
75799;DHT22;65035;44.726;37.764;2022-12-31T05:45:13;18.68;118.99
75799;DHT22;65035;44.726;37.764;2022-12-31T05:46:19;18.67;118.99
75799;DHT22;65035;44.726;37.764;2022-12-31T05:47:22;18.68;118.99
75799;DHT22;65035;44.726;37.764;2022-12-31T05:48:25;18.71;118.99
75799;DHT22;65035;44.726;37.764;2022-12-31T05:49:28;18.73;118.99
75799;DHT22;65035;44.726;37.764;2022-12-31T05:50:31;18.72;118.99
75799;DHT22;65035;44.726;37.764;2022-12-31T05:51:48;18.69;118.99
75799;DHT22;65035;44.726;37.764;2022-12-31T05:52:51;18.69;118.99
75799;DHT22;65035;44.726;37.764;2022-12-31T05:53:54;18.68;118.99
75799;DHT22;65035;44.726;37.764;2022-12-31T05:54:57;18.70;118.99
75799;DHT22;65035;44.726;37.764;2022-12-31T05:56:00;18.70;118.99
75799;DHT22;65035;44.726;37.764;2022-12-31T05:57:03;18.69;118.99
75799;DHT22;65035;44.726;37.764;2022-12-31T05:58:09;18.66;118.99
75799;DHT22;65035;44.726;37.764;2022-12-31T05:59:12;18.68;118.99
75799;DHT22;65035;44.726;37.764;2022-12-31T06:00:15;18.69;118.99
75799;DHT22;65035;44.726;37.764;2022-12-31T06:01:19;18.67;118.99
75799;DHT22;65035;44.726;37.764;2022-12-31T06:02:22;18.67;118.99
75799;DHT22;65035;44.726;37.764;2022-12-31T06:03:25;18.66;118.99
75799;DHT22;65035;44.726;37.764;2022-12-31T06:04:28;18.68;118.99
75799;DHT22;65035;44.726;37.764;2022-12-31T06:05:31;18.67;118.99
75799;DHT22;65035;44.726;37.764;2022-12-31T06:06:34;18.73;118.99
75799;DHT22;65035;44.726;37.764;2022-12-31T06:07:37;18.67;118.99
75799;DHT22;65035;44.726;37.764;2022-12-31T06:08:39;18.74;118.99
75799;DHT22;65035;44.726;37.764;2022-12-31T06:09:42;18.65;118.99
75799;DHT22;65035;44.726;37.764;2022-12-31T06:10:47;18.73;118.99
75799;DHT22;65035;44.726;37.764;2022-12-31T06:11:54;18.72;118.99
75799;DHT22;65035;44.726;37.764;2022-12-31T06:13:04;18.77;118.99
75799;DHT22;65035;44.726;37.764;2022-12-31T06:14:09;18.73;118.99
75799;DHT22;65035;44.726;37.764;2022-12-31T06:15:12;18.74;118.99
75799;DHT22;65035;44.726;37.764;2022-12-31T06:16:16;18.76;118.99
75799;DHT22;65035;44.726;37.764;2022-12-31T06:17:22;18.77;118.99
75799;DHT22;65035;44.726;37.764;2022-12-31T06:18:25;18.77;118.99
75799;DHT22;65035;44.726;37.764;2022-12-31T06:19:31;18.79;118.99
75799;DHT22;65035;44.726;37.764;2022-12-31T06:20:37;18.82;118.99
75799;DHT22;65035;44.726;37.764;2022-12-31T06:21:41;18.83;118.99
75799;DHT22;65035;44.726;37.764;2022-12-31T06:22:44;18.78;118.99
75799;DHT22;65035;44.726;37.764;2022-12-31T06:23:51;18.81;118.99
75799;DHT22;65035;44.726;37.764;2022-12-31T06:25:26;18.80;118.99
75799;DHT22;65035;44.726;37.764;2022-12-31T06:26:51;18.83;118.99
75799;DHT22;65035;44.726;37.764;2022-12-31T06:28:43;18.84;118.99
75799;DHT22;65035;44.726;37.764;2022-12-31T06:29:55;18.85;118.99
75799;DHT22;65035;44.726;37.764;2022-12-31T06:31:03;18.83;118.99
75799;DHT22;65035;44.726;37.764;2022-12-31T06:32:06;18.84;118.99
75799;DHT22;65035;44.726;37.764;2022-12-31T06:33:09;18.86;118.99
75799;DHT22;65035;44.726;37.764;2022-12-31T06:34:12;18.85;118.99
75799;DHT22;65035;44.726;37.764;2022-12-31T06:35:14;18.84;118.99
75799;DHT22;65035;44.726;37.764;2022-12-31T06:36:27;18.83;118.99
75799;DHT22;65035;44.726;37.764;2022-12-31T06:37:31;18.82;118.99
75799;DHT22;65035;44.726;37.764;2022-12-31T06:38:36;18.82;118.99
75799;DHT22;65035;44.726;37.764;2022-12-31T06:39:39;18.82;118.99
75799;DHT22;65035;44.726;37.764;2022-12-31T06:40:42;18.80;118.99
75799;DHT22;65035;44.726;37.764;2022-12-31T06:41:45;18.81;118.99
75799;DHT22;65035;44.726;37.764;2022-12-31T06:42:47;18.80;118.99
75799;DHT22;65035;44.726;37.764;2022-12-31T06:43:56;18.84;118.99
75799;DHT22;65035;44.726;37.764;2022-12-31T06:45:00;18.81;118.99
75799;DHT22;65035;44.726;37.764;2022-12-31T06:46:05;18.81;118.99
75799;DHT22;65035;44.726;37.764;2022-12-31T06:47:08;18.83;118.99
75799;DHT22;65035;44.726;37.764;2022-12-31T06:48:11;18.85;118.99
75799;DHT22;65035;44.726;37.764;2022-12-31T06:49:14;18.79;118.99
75799;DHT22;65035;44.726;37.764;2022-12-31T06:50:17;18.80;118.99
75799;DHT22;65035;44.726;37.764;2022-12-31T06:51:27;18.79;118.99
75799;DHT22;65035;44.726;37.764;2022-12-31T06:52:30;18.82;118.99
75799;DHT22;65035;44.726;37.764;2022-12-31T06:53:37;18.80;118.99
75799;DHT22;65035;44.726;37.764;2022-12-31T06:54:40;18.79;118.99
75799;DHT22;65035;44.726;37.764;2022-12-31T06:55:44;18.78;118.99
75799;DHT22;65035;44.726;37.764;2022-12-31T06:56:47;18.78;118.99
75799;DHT22;65035;44.726;37.764;2022-12-31T06:57:50;18.73;118.99
75799;DHT22;65035;44.726;37.764;2022-12-31T06:58:56;18.77;118.99
75799;DHT22;65035;44.726;37.764;2022-12-31T07:00:00;18.78;118.99
75799;DHT22;65035;44.726;37.764;2022-12-31T07:03:49;18.76;118.99
75799;DHT22;65035;44.726;37.764;2022-12-31T07:05:26;18.78;118.99
75799;DHT22;65035;44.726;37.764;2022-12-31T07:13:58;18.74;118.99
75799;DHT22;65035;44.726;37.764;2022-12-31T07:15:15;18.74;118.99
75799;DHT22;65035;44.726;37.764;2022-12-31T07:16:35;18.71;118.99
75799;DHT22;65035;44.726;37.764;2022-12-31T07:18:37;18.73;118.99
75799;DHT22;65035;44.726;37.764;2022-12-31T07:19:38;18.72;118.99
75799;DHT22;65035;44.726;37.764;2022-12-31T07:20:42;18.68;118.99
75799;DHT22;65035;44.726;37.764;2022-12-31T07:21:57;18.70;118.99
75799;DHT22;65035;44.726;37.764;2022-12-31T07:23:00;18.64;118.99
75799;DHT22;65035;44.726;37.764;2022-12-31T07:24:07;18.69;118.99
75799;DHT22;65035;44.726;37.764;2022-12-31T07:25:21;18.72;118.99
75799;DHT22;65035;44.726;37.764;2022-12-31T07:26:34;18.65;118.99
75799;DHT22;65035;44.726;37.764;2022-12-31T07:28:04;18.73;118.99
75799;DHT22;65035;44.726;37.764;2022-12-31T07:29:20;18.66;118.99
75799;DHT22;65035;44.726;37.764;2022-12-31T07:33:26;18.67;118.99